Time;durP1;ratioP1;P1;durP2;ratioP2;P2;SDS_P1;SDS_P2;PMS_P1;PMS_P2;Temp;Humidity;BMP_temperature;BMP_pressure;BME280_temperature;BME280_humidity;BME280_pressure;Samples;Min_cycle;Max_cycle;Signal;HPM_P1;HPM_P2
2022/08/03 00:01:26;;;;;;;3.38;1.98;;;;;;;19.21;100.00;96673.38;4965880;28;20344;-72
2022/08/03 00:03:51;;;;;;;4.22;2.20;;;;;;;19.19;100.00;96675.59;4966573;28;20061;-72
2022/08/03 00:06:17;;;;;;;4.38;1.90;;;;;;;19.25;100.00;96667.38;4969104;28;20308;-72
2022/08/03 00:08:43;;;;;;;5.95;2.03;;;;;;;19.26;100.00;96661.66;4965092;28;20055;-72
2022/08/03 00:11:08;;;;;;;4.13;1.98;;;;;;;19.31;100.00;96667.00;4966124;28;20129;-72
2022/08/03 00:13:33;;;;;;;4.72;1.80;;;;;;;19.29;100.00;96665.66;4968344;28;20418;-72
2022/08/03 00:15:59;;;;;;;2.63;1.60;;;;;;;19.16;100.00;96665.38;4955135;28;20086;-72
2022/08/03 00:18:24;;;;;;;3.42;1.88;;;;;;;19.09;100.00;96666.84;4963041;28;20072;-72
2022/08/03 00:20:50;;;;;;;6.28;2.05;;;;;;;19.12;100.00;96664.34;4968132;28;20065;-72
2022/08/03 00:23:16;;;;;;;4.60;1.90;;;;;;;19.15;100.00;96660.25;4965431;28;20125;-72
2022/08/03 00:25:41;;;;;;;3.97;1.90;;;;;;;18.96;100.00;96665.69;4948359;28;20034;-72
2022/08/03 00:28:07;;;;;;;3.20;1.98;;;;;;;18.84;100.00;96660.75;4967155;28;20031;-72
2022/08/03 00:30:33;;;;;;;2.85;1.70;;;;;;;18.76;100.00;96656.00;4953850;28;20041;-72
2022/08/03 00:32:59;;;;;;;4.95;1.85;;;;;;;18.75;100.00;96662.50;4965169;28;20042;-72
2022/08/03 00:35:25;;;;;;;3.58;2.00;;;;;;;18.75;100.00;96664.41;4967186;28;20057;-72
2022/08/03 00:37:51;;;;;;;3.58;2.20;;;;;;;18.74;100.00;96655.47;4966898;28;20042;-72
2022/08/03 00:40:18;;;;;;;4.93;2.00;;;;;;;18.73;100.00;96662.00;4968465;28;20057;-72
2022/08/03 00:43:04;;;;;;;5.55;2.03;;;;;;;18.47;100.00;96652.63;4966010;28;20121;-72
2022/08/03 00:45:32;;;;;;;3.20;1.90;;;;;;;18.37;100.00;96659.81;4967177;28;20544;-72
2022/08/03 00:47:58;;;;;;;3.67;1.80;;;;;;;18.49;100.00;96658.56;4966826;28;20038;-72
2022/08/03 00:50:25;;;;;;;3.45;1.85;;;;;;;18.58;100.00;96654.88;4966366;28;20441;-72
2022/08/03 00:52:53;;;;;;;3.33;2.00;;;;;;;18.56;100.00;96664.41;4967771;28;20061;-72
2022/08/03 00:55:19;;;;;;;4.57;2.00;;;;;;;18.45;100.00;96666.50;4966688;28;20035;-72
2022/08/03 00:57:45;;;;;;;3.97;2.00;;;;;;;18.36;100.00;96662.81;4967197;28;20031;-72
2022/08/03 01:00:13;;;;;;;4.25;1.85;;;;;;;18.22;100.00;96651.91;4963854;28;20272;-72
2022/08/03 01:02:40;;;;;;;4.05;2.15;;;;;;;18.19;100.00;96659.81;4965412;28;20030;-73
2022/08/03 01:05:06;;;;;;;4.65;1.80;;;;;;;18.21;100.00;96658.44;4964792;28;20042;-72
2022/08/03 01:08:09;;;;;;;6.90;1.98;;;;;;;18.22;100.00;96654.63;4964053;28;20425;-72
2022/08/03 01:10:34;;;;;;;4.40;2.10;;;;;;;18.09;100.00;96653.44;4950598;28;20069;-72
2022/08/03 01:13:31;;;;;;;3.25;1.90;;;;;;;18.04;100.00;96648.06;4966138;28;20462;-72
2022/08/03 01:16:00;;;;;;;3.50;1.98;;;;;;;18.09;100.00;96647.22;4956023;28;20521;-72
2022/08/03 01:18:41;;;;;;;3.42;2.13;;;;;;;18.05;100.00;96641.59;4965457;28;20401;-72
2022/08/03 01:21:12;;;;;;;3.17;1.88;;;;;;;18.14;100.00;96644.44;4948403;28;20035;-72
2022/08/03 01:24:00;;;;;;;3.65;2.10;;;;;;;18.22;100.00;96641.09;4964959;28;20069;-72
2022/08/03 01:27:07;;;;;;;4.55;2.08;;;;;;;18.30;100.00;96645.03;4965259;28;20046;-72
2022/08/03 01:29:58;;;;;;;8.55;2.08;;;;;;;18.28;100.00;96636.38;4904676;29;20044;-72
2022/08/03 01:32:26;;;;;;;;;;;;;;;18.30;100.00;96643.13;4902322;29;20093;-72
2022/08/03 01:35:02;;;;;;;4.85;1.80;;;;;;;18.32;100.00;96645.53;4947315;28;19913;-72
2022/08/03 01:37:39;;;;;;;4.40;2.05;;;;;;;18.32;100.00;96640.94;4963997;28;20345;-72
2022/08/03 01:40:07;;;;;;;4.18;2.08;;;;;;;18.30;100.00;96635.00;4964966;28;20167;-72
2022/08/03 01:42:35;;;;;;;3.88;2.20;;;;;;;18.08;100.00;96638.28;4964570;28;20069;-72
2022/08/03 01:45:02;;;;;;;5.97;2.00;;;;;;;18.09;100.00;96631.78;4964995;28;20514;-72
2022/08/03 01:47:29;;;;;;;3.55;2.08;;;;;;;18.11;100.00;96636.91;4964423;28;20109;-72
2022/08/03 01:49:56;;;;;;;4.75;2.20;;;;;;;18.12;100.00;96624.16;4964771;28;20042;-72
2022/08/03 01:52:23;;;;;;;5.82;2.28;;;;;;;18.14;100.00;96624.69;4963333;28;20058;-72
2022/08/03 01:54:51;;;;;;;7.63;2.00;;;;;;;18.15;100.00;96634.41;4967547;28;20209;-72
2022/08/03 01:57:18;;;;;;;5.18;2.10;;;;;;;18.14;100.00;96627.41;4963496;28;20165;-72
2022/08/03 01:59:47;;;;;;;5.97;2.10;;;;;;;18.13;100.00;96631.97;4965723;28;20107;-72
2022/08/03 02:02:15;;;;;;;4.15;2.08;;;;;;;18.10;100.00;96632.56;4963372;28;20035;-72
2022/08/03 02:04:44;;;;;;;3.60;2.22;;;;;;;18.07;100.00;96633.16;4965530;28;20042;-72
2022/08/03 02:07:11;;;;;;;5.32;2.00;;;;;;;18.06;100.00;96628.84;4961905;28;20505;-72
2022/08/03 02:09:39;;;;;;;4.28;2.05;;;;;;;18.05;100.00;96625.34;4948360;28;20112;-72
2022/08/03 02:12:09;;;;;;;6.47;2.28;;;;;;;17.94;100.00;96629.28;4963815;28;20390;-72
2022/08/03 02:14:36;;;;;;;4.30;2.47;;;;;;;17.87;100.00;96628.81;4966967;28;20666;-72
2022/08/03 02:17:03;;;;;;;3.85;2.30;;;;;;;17.88;100.00;96619.59;4964911;28;20377;-72
2022/08/03 02:19:30;;;;;;;3.95;2.30;;;;;;;17.81;100.00;96617.25;4965851;28;20062;-72
2022/08/03 02:21:57;;;;;;;5.40;2.40;;;;;;;17.87;100.00;96628.03;4965489;28;20561;-72
2022/08/03 02:24:23;;;;;;;3.78;2.28;;;;;;;17.88;100.00;96624.22;4964213;28;20588;-72
2022/08/03 02:26:52;;;;;;;7.10;2.13;;;;;;;17.81;100.00;96625.38;4963280;28;20452;-72
2022/08/03 02:29:26;;;;;;;3.53;2.38;;;;;;;17.81;100.00;96617.25;4962685;28;20088;-72
2022/08/03 02:31:56;;;;;;;5.10;2.10;;;;;;;17.83;100.00;96622.41;4965945;28;20042;-72
2022/08/03 02:34:25;;;;;;;6.73;2.20;;;;;;;17.84;100.00;96615.09;4965165;28;20137;-72
2022/08/03 02:36:53;;;;;;;7.35;2.30;;;;;;;17.79;100.00;96626.75;4965765;28;20095;-72
2022/08/03 02:39:24;;;;;;;4.60;2.38;;;;;;;17.77;100.00;96623.56;4945817;28;20045;-72
2022/08/03 02:42:00;;;;;;;;;;;;;;;17.64;100.00;96621.50;4966202;28;20113;-72
2022/08/03 02:44:27;;;;;;;3.60;2.20;;;;;;;17.53;100.00;96615.44;4965496;28;19924;-72
2022/08/03 02:47:02;;;;;;;6.32;2.40;;;;;;;17.45;100.00;96610.66;4964682;28;20089;-72
2022/08/03 02:49:29;;;;;;;3.67;2.33;;;;;;;17.41;100.00;96607.69;4962329;28;20449;-72
2022/08/03 02:51:56;;;;;;;4.90;2.13;;;;;;;17.49;100.00;96607.06;4961942;28;20039;-72
2022/08/03 02:54:25;;;;;;;8.90;2.45;;;;;;;17.54;100.00;96601.59;4964591;28;20036;-72
2022/08/03 02:56:53;;;;;;;4.75;2.25;;;;;;;17.51;100.00;96604.91;4961552;28;20541;-72
2022/08/03 02:59:22;;;;;;;5.80;2.35;;;;;;;17.43;100.00;96602.84;4963807;28;20117;-72
2022/08/03 03:01:48;;;;;;;4.70;3.03;;;;;;;17.33;100.00;96602.13;4963676;28;20041;-72
2022/08/03 03:04:15;;;;;;;4.50;2.75;;;;;;;17.19;100.00;96602.00;4942945;28;20198;-72
2022/08/03 03:06:41;;;;;;;4.90;2.95;;;;;;;17.14;100.00;96611.00;4962703;28;20457;-72
2022/08/03 03:09:07;;;;;;;5.95;2.53;;;;;;;17.22;100.00;96601.44;4961594;28;20500;-72
2022/08/03 03:11:36;;;;;;;6.70;2.72;;;;;;;17.27;100.00;96604.06;4965673;28;20284;-72
2022/08/03 03:14:02;;;;;;;5.03;2.80;;;;;;;17.34;100.00;96607.25;4963952;28;20409;-72
2022/08/03 03:16:29;;;;;;;3.90;2.50;;;;;;;17.36;100.00;96606.97;4963198;28;20037;-72
2022/08/03 03:18:57;;;;;;;4.75;2.72;;;;;;;17.37;100.00;96614.81;4962738;28;20042;-72
2022/08/03 03:21:25;;;;;;;6.53;2.72;;;;;;;17.39;100.00;96612.59;4965786;28;20118;-72
2022/08/03 03:23:51;;;;;;;10.63;3.15;;;;;;;17.23;100.00;96605.75;4963201;28;20372;-72
2022/08/03 03:26:18;;;;;;;4.35;2.20;;;;;;;17.17;100.00;96604.19;4965651;28;20106;-72
2022/08/03 03:28:44;;;;;;;5.25;2.53;;;;;;;17.11;100.00;96599.94;4966332;28;20034;-72
2022/08/03 03:31:10;;;;;;;5.35;2.45;;;;;;;17.14;100.00;96602.88;4947236;28;20287;-72
2022/08/03 03:33:37;;;;;;;5.72;3.03;;;;;;;17.16;100.00;96605.28;4964609;28;20417;-72
2022/08/03 03:36:05;;;;;;;4.68;2.70;;;;;;;17.12;100.00;96602.38;4945377;28;20058;-72
2022/08/03 03:38:31;;;;;;;4.25;2.65;;;;;;;17.14;100.00;96605.59;4964901;28;20034;-72
2022/08/03 03:40:57;;;;;;;6.38;2.75;;;;;;;17.17;100.00;96609.59;4964292;28;20026;-72
2022/08/03 03:43:23;;;;;;;6.18;2.67;;;;;;;17.19;100.00;96604.69;4962343;28;20652;-72
2022/08/03 03:45:50;;;;;;;5.57;2.95;;;;;;;17.17;100.00;96602.28;4964503;28;20097;-72
2022/08/03 03:48:18;;;;;;;5.97;2.80;;;;;;;17.14;100.00;96610.19;4962555;28;20752;-72
2022/08/03 03:50:44;;;;;;;4.60;2.67;;;;;;;17.15;100.00;96614.50;4964527;28;20484;-72
2022/08/03 03:53:10;;;;;;;6.00;2.65;;;;;;;17.09;100.00;96611.03;4966888;28;20123;-72
2022/08/03 03:55:37;;;;;;;4.25;2.80;;;;;;;16.95;100.00;96608.19;4967180;28;20034;-72
2022/08/03 03:58:03;;;;;;;4.30;2.88;;;;;;;16.85;100.00;96610.19;4948260;28;20505;-72
2022/08/03 04:00:29;;;;;;;4.85;2.75;;;;;;;16.89;100.00;96608.56;4967107;28;20053;-72
2022/08/03 04:02:55;;;;;;;12.40;2.80;;;;;;;16.81;100.00;96609.97;4965725;28;20034;-72
2022/08/03 04:11:23;;;;;;;10.73;2.75;;;;;;;16.83;100.00;96604.28;4967632;28;20043;-72
2022/08/03 04:13:53;;;;;;;4.15;2.72;;;;;;;16.86;100.00;96606.41;4965573;28;20038;-72
2022/08/03 04:16:23;;;;;;;10.45;3.17;;;;;;;16.87;100.00;96606.09;4966799;28;20312;-73
2022/08/03 04:19:03;;;;;;;5.22;2.70;;;;;;;16.93;100.00;96604.97;4966238;28;20550;-73
2022/08/03 04:21:31;;;;;;;3.78;2.20;;;;;;;16.95;100.00;96605.50;4965454;28;20038;-73
2022/08/03 04:24:01;;;;;;;4.10;2.55;;;;;;;16.97;100.00;96595.22;4963408;28;20038;-73
2022/08/03 04:26:30;;;;;;;8.50;2.63;;;;;;;17.02;100.00;96605.16;4966766;28;20069;-73
2022/08/03 04:28:57;;;;;;;9.55;2.88;;;;;;;17.08;100.00;96611.31;4965805;28;20125;-73
2022/08/03 04:31:24;;;;;;;6.28;2.53;;;;;;;17.08;100.00;96612.13;4964936;28;20132;-73
2022/08/03 04:33:52;;;;;;;10.63;2.85;;;;;;;17.10;100.00;96611.84;4967400;28;20205;-74
2022/08/03 04:36:22;;;;;;;4.70;2.63;;;;;;;17.11;100.00;96610.75;4967000;28;20038;-73
2022/08/03 04:39:08;;;;;;;4.03;2.70;;;;;;;17.09;100.00;96613.72;4966520;28;20542;-73
2022/08/03 04:41:35;;;;;;;7.68;2.38;;;;;;;17.12;100.00;96617.75;4966464;28;20039;-73
2022/08/03 04:44:01;;;;;;;8.35;2.47;;;;;;;17.16;100.00;96621.50;4967498;28;20057;-74
2022/08/03 04:46:30;;;;;;;5.97;2.25;;;;;;;17.21;100.00;96624.19;4966462;28;20045;-71
2022/08/03 04:48:56;;;;;;;6.10;2.30;;;;;;;17.28;100.00;96621.94;4965203;28;20475;-72
2022/08/03 04:51:22;;;;;;;5.35;2.95;;;;;;;17.41;100.00;96615.81;4965481;28;20031;-72
2022/08/03 04:53:48;;;;;;;3.67;2.15;;;;;;;17.46;100.00;96618.47;4967740;28;20037;-71
2022/08/03 04:56:13;;;;;;;6.43;2.33;;;;;;;17.56;100.00;96622.97;4966021;28;20039;-71
2022/08/03 04:58:39;;;;;;;5.95;1.92;;;;;;;17.61;100.00;96620.19;4965628;28;20547;-72
2022/08/03 05:01:04;;;;;;;7.50;2.00;;;;;;;17.67;100.00;96623.66;4965518;28;20635;-72
2022/08/03 05:03:30;;;;;;;6.20;2.38;;;;;;;17.70;100.00;96623.91;4966061;28;20174;-72
2022/08/03 05:05:56;;;;;;;5.03;2.30;;;;;;;17.79;100.00;96624.06;4967405;28;20599;-73
2022/08/03 05:08:22;;;;;;;7.55;2.13;;;;;;;17.85;100.00;96624.81;4964021;28;20145;-72
2022/08/03 05:10:47;;;;;;;4.75;2.35;;;;;;;17.89;100.00;96631.22;4964966;28;20509;-72
2022/08/03 05:13:13;;;;;;;5.75;2.42;;;;;;;17.94;100.00;96628.47;4945260;28;20030;-73
2022/08/03 05:15:41;;;;;;;4.55;2.10;;;;;;;18.00;100.00;96628.13;4967714;28;20633;-72
2022/08/03 05:18:07;;;;;;;4.50;1.90;;;;;;;18.03;100.00;96627.53;4961007;28;20497;-73
2022/08/03 05:20:32;;;;;;;5.65;2.42;;;;;;;18.12;100.00;96626.88;4967485;28;20229;-73
2022/08/03 05:23:00;;;;;;;6.78;2.17;;;;;;;18.22;100.00;96624.03;4965882;28;20065;-73
2022/08/03 05:25:26;;;;;;;5.78;2.20;;;;;;;18.29;100.00;96624.47;4964991;28;20043;-73
2022/08/03 05:27:51;;;;;;;3.38;1.83;;;;;;;18.44;100.00;96621.50;4967603;28;20331;-73
2022/08/03 05:30:17;;;;;;;4.00;2.03;;;;;;;18.55;100.00;96633.81;4967511;28;20137;-73
2022/08/03 05:32:42;;;;;;;3.17;1.80;;;;;;;18.65;100.00;96622.84;4964471;28;20324;-73
2022/08/03 05:35:08;;;;;;;5.97;2.00;;;;;;;18.75;100.00;96626.47;4966177;28;20501;-73
2022/08/03 05:37:33;;;;;;;5.43;2.00;;;;;;;18.80;100.00;96631.81;4967190;28;20026;-73
2022/08/03 05:39:59;;;;;;;5.97;1.85;;;;;;;18.89;100.00;96624.59;4967624;28;20082;-73
2022/08/03 05:42:24;;;;;;;6.53;2.72;;;;;;;19.00;100.00;96630.69;4962674;28;20104;-73
2022/08/03 05:44:50;;;;;;;5.95;2.00;;;;;;;19.14;100.00;96624.19;4965695;28;20304;-73
2022/08/03 05:47:15;;;;;;;4.25;2.08;;;;;;;19.25;100.00;96629.41;4965119;28;20478;-73
2022/08/03 05:49:41;;;;;;;3.83;1.90;;;;;;;19.36;100.00;96628.09;4967005;28;20082;-73
2022/08/03 05:52:06;;;;;;;12.10;2.55;;;;;;;19.47;100.00;96633.06;4964807;28;20037;-73
2022/08/03 05:54:32;;;;;;;3.80;2.00;;;;;;;19.57;100.00;96637.50;4964225;28;20039;-73
2022/08/03 05:56:57;;;;;;;3.80;2.00;;;;;;;19.65;100.00;96636.78;4964428;28;20030;-73
2022/08/03 05:59:24;;;;;;;3.40;1.80;;;;;;;19.80;100.00;96632.16;4963939;28;20030;-73
2022/08/03 06:01:49;;;;;;;7.38;2.78;;;;;;;19.90;100.00;96629.22;4962290;28;20537;-73
2022/08/03 06:04:15;;;;;;;5.55;2.50;;;;;;;20.02;100.00;96624.09;4961434;28;20077;-73
2022/08/03 06:06:40;;;;;;;4.90;2.00;;;;;;;20.12;100.00;96632.00;4965100;28;20026;-73
2022/08/03 06:09:06;;;;;;;7.75;2.20;;;;;;;20.22;100.00;96634.50;4962687;28;20043;-73
2022/08/03 06:11:31;;;;;;;4.38;2.20;;;;;;;20.30;100.00;96639.19;4950962;28;20109;-73
2022/08/03 06:13:57;;;;;;;6.95;2.05;;;;;;;20.39;100.00;96635.75;4965420;28;20463;-73
2022/08/03 06:16:22;;;;;;;4.07;1.95;;;;;;;20.45;100.00;96635.38;4963148;28;21302;-73
2022/08/03 06:18:48;;;;;;;3.25;1.90;;;;;;;20.56;100.00;96636.75;4963066;28;20034;-73
2022/08/03 06:21:14;;;;;;;9.10;1.92;;;;;;;20.66;100.00;96638.41;4964511;28;20057;-73
2022/08/03 06:23:42;;;;;;;3.53;1.70;;;;;;;20.76;100.00;96630.00;4962559;28;20368;-73
2022/08/03 06:26:07;;;;;;;4.28;1.90;;;;;;;20.86;100.00;96639.84;4965899;28;20342;-73
2022/08/03 06:28:33;;;;;;;5.05;1.70;;;;;;;20.98;100.00;96631.09;4963584;28;20035;-73
2022/08/03 06:30:58;;;;;;;3.25;1.85;;;;;;;21.07;100.00;96635.47;4965584;28;20039;-73
2022/08/03 06:33:25;;;;;;;3.17;1.70;;;;;;;21.14;100.00;96635.03;4963862;28;20133;-73
2022/08/03 06:35:50;;;;;;;5.18;2.00;;;;;;;21.25;100.00;96641.03;4953620;28;20034;-73
2022/08/03 06:38:16;;;;;;;9.32;1.88;;;;;;;21.34;100.00;96642.72;4960778;28;20457;-73
2022/08/03 06:40:41;;;;;;;4.13;1.83;;;;;;;21.41;99.83;96634.91;4965797;28;20315;-73
2022/08/03 06:43:07;;;;;;;4.90;1.80;;;;;;;21.51;99.85;96647.44;4964914;28;20441;-73
2022/08/03 06:45:34;;;;;;;5.55;1.67;;;;;;;21.59;99.15;96641.22;4963266;28;20163;-73
2022/08/03 06:48:06;;;;;;;5.55;2.00;;;;;;;21.65;97.62;96641.88;4963761;28;20600;-73
2022/08/03 06:50:33;;;;;;;5.35;1.77;;;;;;;21.70;97.79;96642.53;4962575;28;20077;-73
2022/08/03 06:52:59;;;;;;;7.82;1.95;;;;;;;21.79;97.81;96648.00;4961606;28;20123;-73
2022/08/03 06:55:25;;;;;;;7.32;1.88;;;;;;;21.87;99.10;96644.50;4967029;28;20041;-73
2022/08/03 06:57:51;;;;;;;6.30;1.90;;;;;;;21.89;97.93;96655.09;4965181;28;20257;-73
2022/08/03 07:00:17;;;;;;;3.85;1.70;;;;;;;21.97;97.62;96655.09;4964367;28;20102;-73
2022/08/03 07:02:43;;;;;;;4.10;1.70;;;;;;;22.02;96.65;96653.34;4964144;28;20041;-73
2022/08/03 07:05:09;;;;;;;3.97;1.60;;;;;;;22.14;96.67;96648.13;4965733;28;20034;-73
2022/08/03 07:07:35;;;;;;;2.90;1.58;;;;;;;22.25;97.08;96647.47;4963938;28;20042;-73
2022/08/03 07:10:01;;;;;;;4.07;1.80;;;;;;;22.35;95.01;96657.28;4967746;28;20577;-73
2022/08/03 07:12:28;;;;;;;5.82;1.73;;;;;;;22.43;95.98;96653.78;4964978;28;20038;-73
2022/08/03 07:14:55;;;;;;;3.65;1.90;;;;;;;22.52;96.02;96660.03;4966208;28;20351;-73
2022/08/03 07:17:20;;;;;;;7.78;1.70;;;;;;;22.61;97.21;96664.69;4964778;28;20120;-73
2022/08/03 07:19:48;;;;;;;7.13;1.60;;;;;;;22.69;93.92;96663.88;4965125;28;20090;-73
2022/08/03 07:22:13;;;;;;;4.88;1.75;;;;;;;22.79;96.07;96660.81;4961434;28;20549;-73
2022/08/03 07:24:40;;;;;;;9.60;1.80;;;;;;;22.83;95.46;96663.72;4964681;28;20117;-73
2022/08/03 07:27:06;;;;;;;7.32;1.70;;;;;;;22.92;95.50;96668.06;4964785;28;20145;-73
2022/08/03 07:29:33;;;;;;;4.00;1.77;;;;;;;22.95;95.43;96661.94;4966223;28;20416;-73
2022/08/03 07:31:58;;;;;;;5.80;1.63;;;;;;;23.06;92.42;96656.97;4967008;28;20130;-73
2022/08/03 07:34:24;;;;;;;4.47;1.85;;;;;;;23.20;92.25;96663.06;4969398;28;20101;-73
2022/08/03 07:36:49;;;;;;;4.97;1.67;;;;;;;23.28;92.24;96661.44;4969577;28;20057;-73
2022/08/03 07:39:15;;;;;;;3.55;1.70;;;;;;;23.32;91.86;96667.81;4968065;28;20100;-73
2022/08/03 07:41:41;;;;;;;5.50;1.45;;;;;;;23.41;91.83;96671.31;4968082;28;20034;-73
2022/08/03 07:44:06;;;;;;;5.53;1.65;;;;;;;23.49;89.63;96659.56;4968116;28;20035;-73
2022/08/03 07:46:32;;;;;;;4.65;1.58;;;;;;;23.58;90.16;96668.56;4968494;28;20031;-73
2022/08/03 07:48:57;;;;;;;3.80;1.30;;;;;;;23.65;90.05;96670.78;4963839;28;20071;-73
2022/08/03 07:51:23;;;;;;;3.58;1.50;;;;;;;23.62;89.46;96674.19;4971863;28;20045;-73
2022/08/03 07:53:48;;;;;;;2.88;1.30;;;;;;;23.59;88.62;96667.44;4967373;28;20703;-73
2022/08/03 07:56:15;;;;;;;3.22;1.50;;;;;;;23.66;89.55;96666.13;4967946;28;20070;-73
2022/08/03 07:58:41;;;;;;;8.68;2.00;;;;;;;23.75;88.53;96658.72;4965652;28;20133;-73
2022/08/03 08:01:07;;;;;;;5.68;1.35;;;;;;;23.78;87.74;96656.13;4966323;28;20328;-73
2022/08/03 08:03:32;;;;;;;5.38;1.60;;;;;;;23.78;88.16;96658.06;4969059;28;20042;-73
2022/08/03 08:05:57;;;;;;;3.47;1.50;;;;;;;23.78;87.90;96650.66;4971107;28;20057;-73
2022/08/03 08:08:23;;;;;;;7.65;1.75;;;;;;;23.92;88.31;96653.16;4949432;28;20054;-73
2022/08/03 08:10:48;;;;;;;5.60;1.45;;;;;;;24.06;86.18;96651.00;4969794;28;20042;-73
2022/08/03 08:13:14;;;;;;;4.97;1.60;;;;;;;24.08;85.94;96646.00;4964205;28;20375;-73
2022/08/03 08:15:40;;;;;;;4.65;1.40;;;;;;;24.17;83.09;96654.94;4967403;28;20492;-73
2022/08/03 08:18:05;;;;;;;2.53;1.30;;;;;;;24.24;84.35;96659.91;4949638;28;20042;-73
2022/08/03 08:20:33;;;;;;;6.03;1.50;;;;;;;24.32;86.01;96650.03;4968226;28;20061;-73
2022/08/03 08:23:05;;;;;;;8.38;1.52;;;;;;;24.47;83.53;96656.88;4966879;28;20042;-73
2022/08/03 08:25:31;;;;;;;2.50;1.15;;;;;;;24.38;85.15;96659.69;4950979;28;20213;-74
2022/08/03 08:27:57;;;;;;;2.45;1.15;;;;;;;24.23;90.65;96662.97;4965083;28;20264;-74
2022/08/03 08:30:23;;;;;;;2.78;1.35;;;;;;;24.07;89.52;96655.34;4959379;28;20468;-74
2022/08/03 08:32:50;;;;;;;4.05;1.60;;;;;;;24.11;87.54;96650.78;4967314;28;20042;-74
2022/08/03 08:35:16;;;;;;;4.93;1.73;;;;;;;24.15;90.85;96662.69;4949711;28;20034;-74
2022/08/03 08:37:42;;;;;;;3.47;1.40;;;;;;;24.19;85.33;96651.88;4966005;28;20494;-73
2022/08/03 08:40:10;;;;;;;3.38;1.35;;;;;;;24.25;87.78;96653.28;4946849;28;20436;-74
2022/08/03 08:42:40;;;;;;;4.63;1.67;;;;;;;24.26;85.09;96662.28;4964726;28;20544;-74
2022/08/03 08:45:07;;;;;;;3.95;1.45;;;;;;;24.30;86.21;96657.78;4965213;28;20039;-74
2022/08/03 08:47:36;;;;;;;5.82;1.40;;;;;;;24.50;85.13;96650.72;4966785;28;20114;-74
2022/08/03 08:50:02;;;;;;;2.85;1.40;;;;;;;24.49;88.17;96651.88;4965624;28;20053;-74
2022/08/03 08:52:29;;;;;;;8.25;1.73;;;;;;;24.35;82.40;96661.13;4967668;28;20061;-73
2022/08/03 08:54:57;;;;;;;2.60;1.38;;;;;;;24.31;84.09;96659.38;4970267;28;20128;-73
2022/08/03 08:57:29;;;;;;;3.72;1.50;;;;;;;24.38;81.98;96659.69;4966181;28;20393;-74
2022/08/03 08:59:56;;;;;;;2.92;1.50;;;;;;;24.43;83.71;96654.78;4962983;28;20042;-74
2022/08/03 09:02:23;;;;;;;6.47;1.60;;;;;;;24.64;81.98;96660.28;4963966;28;20073;-74
2022/08/03 09:04:49;;;;;;;3.97;1.30;;;;;;;24.74;83.06;96648.91;4955877;28;20027;-73
2022/08/03 09:07:17;;;;;;;5.88;1.60;;;;;;;24.73;86.18;96647.31;4964259;28;20280;-74
2022/08/03 09:09:43;;;;;;;6.13;1.67;;;;;;;24.62;88.14;96654.34;4964386;28;20100;-74
2022/08/03 09:12:08;;;;;;;3.88;1.50;;;;;;;24.64;83.24;96649.31;4964701;28;20034;-74
2022/08/03 09:14:34;;;;;;;3.35;1.60;;;;;;;24.76;80.10;96653.28;4964752;28;20049;-73
2022/08/03 09:17:02;;;;;;;4.85;1.40;;;;;;;24.79;76.18;96655.34;4966371;28;20312;-73
2022/08/03 09:19:33;;;;;;;2.78;1.55;;;;;;;24.85;80.38;96657.53;4963913;28;20497;-74
2022/08/03 09:22:12;;;;;;;4.85;1.70;;;;;;;24.94;81.67;96646.50;4965676;28;20046;-73
2022/08/03 09:24:57;;;;;;;6.03;1.50;;;;;;;25.01;84.26;96646.75;4966900;28;20112;-73
2022/08/03 09:27:23;;;;;;;8.20;1.48;;;;;;;25.39;76.45;96653.97;4965010;28;20256;-74
2022/08/03 09:29:53;;;;;;;5.45;1.60;;;;;;;25.52;77.79;96641.88;4938014;28;20525;-74
2022/08/03 09:32:21;;;;;;;3.08;1.52;;;;;;;25.50;81.87;96635.94;4962141;28;20129;-74
2022/08/03 09:34:51;;;;;;;4.47;1.50;;;;;;;25.60;76.19;96638.22;4960223;28;20038;-74
2022/08/03 09:37:19;;;;;;;6.43;1.50;;;;;;;25.68;75.68;96647.47;4964204;28;20031;-74
2022/08/03 09:39:46;;;;;;;5.15;1.65;;;;;;;25.73;71.19;96637.13;4964325;28;20097;-73
2022/08/03 09:42:17;;;;;;;3.47;1.23;;;;;;;25.74;71.86;96630.50;4966411;28;20030;-74
2022/08/03 09:44:45;;;;;;;4.57;1.70;;;;;;;25.80;72.12;96637.38;4963808;28;20058;-74
2022/08/03 09:47:13;;;;;;;3.65;1.75;;;;;;;25.93;73.23;96638.19;4966545;28;20038;-73
2022/08/03 09:49:41;;;;;;;4.90;1.40;;;;;;;25.92;72.11;96624.81;4964902;28;20073;-73
2022/08/03 09:52:21;;;;;;;5.50;1.63;;;;;;;26.06;71.98;96634.25;4944985;28;20034;-74
2022/08/03 09:54:51;;;;;;;4.63;1.50;;;;;;;26.09;72.08;96641.03;4964933;28;20425;-74
2022/08/03 09:57:21;;;;;;;7.78;1.67;;;;;;;26.25;67.63;96635.63;4965279;28;20092;-74
2022/08/03 09:59:47;;;;;;;;;;;;;;;26.41;66.36;96638.50;4964370;28;20133;-74
2022/08/03 10:02:26;;;;;;;2.83;1.40;;;;;;;26.56;67.25;96640.50;4964246;28;19924;-74
2022/08/03 10:04:54;;;;;;;4.88;1.63;;;;;;;26.64;70.43;96643.09;4965684;28;20533;-74
2022/08/03 10:07:21;;;;;;;3.92;1.33;;;;;;;26.66;63.88;96648.25;4965899;28;20047;-73
2022/08/03 10:10:01;;;;;;;4.97;1.40;;;;;;;26.95;66.06;96641.63;4964342;28;20030;-73
2022/08/03 10:12:28;;;;;;;3.78;1.35;;;;;;;27.05;61.34;96638.41;4965974;28;20046;-74
2022/08/03 10:14:54;;;;;;;3.97;1.42;;;;;;;26.85;61.66;96637.44;4963871;28;20089;-74
2022/08/03 10:17:21;;;;;;;4.30;1.40;;;;;;;27.12;64.55;96630.34;4964391;28;20185;-74
2022/08/03 10:19:48;;;;;;;4.30;1.42;;;;;;;27.54;62.84;96629.88;4963705;28;20113;-74
2022/08/03 10:22:25;;;;;;;8.05;1.80;;;;;;;27.54;58.52;96629.88;4964513;28;20070;-74
2022/08/03 10:25:11;;;;;;;6.90;1.42;;;;;;;27.63;52.83;96625.00;4965726;28;20060;-74
2022/08/03 10:27:39;;;;;;;3.20;1.40;;;;;;;27.75;62.56;96624.94;4965295;28;20521;-74
2022/08/03 10:30:14;;;;;;;4.50;1.33;;;;;;;27.89;55.13;96616.25;4964960;28;20034;-74
2022/08/03 10:32:48;;;;;;;4.63;1.48;;;;;;;28.06;58.84;96617.00;4965284;28;20035;-74
2022/08/03 10:35:19;;;;;;;5.37;1.80;;;;;;;28.32;54.88;96614.47;4276246;28;10000158;-74
2022/08/03 10:37:56;;;;;;;4.57;1.70;;;;;;;28.43;59.02;96615.53;4930986;28;20061;-74
2022/08/03 10:40:22;;;;;;;6.65;1.80;;;;;;;28.47;57.60;96610.88;4964457;28;20433;-74
2022/08/03 10:42:51;;;;;;;5.25;1.77;;;;;;;28.65;59.76;96605.75;4964568;28;20088;-74
2022/08/03 10:45:19;;;;;;;2.70;1.48;;;;;;;28.73;56.24;96607.50;4961977;28;20747;-74
2022/08/03 10:47:55;;;;;;;5.78;1.60;;;;;;;28.95;55.30;96613.44;4974768;28;20076;-74
2022/08/03 10:50:23;;;;;;;5.53;1.80;;;;;;;29.06;57.01;96615.25;4966673;28;20486;-74
2022/08/03 10:52:56;;;;;;;10.85;1.80;;;;;;;29.01;52.52;96610.03;4961765;28;20064;-74
2022/08/03 10:58:42;;;;;;;6.18;1.60;;;;;;;28.88;55.46;96605.81;4960863;28;20045;-74
2022/08/03 11:01:09;;;;;;;8.73;1.90;;;;;;;29.60;51.94;96605.22;4973376;28;20085;-74
2022/08/03 11:04:14;;;;;;;2.85;1.60;;;;;;;30.19;48.92;96596.28;4951032;28;20057;-73
2022/08/03 11:07:30;;;;;;;4.85;1.70;;;;;;;30.70;45.33;96595.81;4926602;28;20082;-74
2022/08/03 11:09:57;;;;;;;2.85;1.40;;;;;;;31.05;43.43;96589.09;4971301;28;20589;-74
2022/08/03 11:12:30;;;;;;;2.67;1.40;;;;;;;31.55;40.70;96584.09;4966423;28;20577;-74
2022/08/03 11:15:19;;;;;;;4.35;1.60;;;;;;;32.43;38.74;96595.03;4968526;28;20092;-74
2022/08/03 11:18:09;;;;;;;4.13;1.60;;;;;;;34.14;34.56;96582.75;4973082;28;20096;-74
2022/08/03 11:20:48;;;;;;;3.88;1.63;;;;;;;35.82;31.96;96577.19;4968700;28;20045;-74
2022/08/03 11:23:42;;;;;;;4.35;1.63;;;;;;;37.63;28.20;96579.81;4966149;28;20145;-74
2022/08/03 11:26:17;;;;;;;4.25;1.73;;;;;;;39.09;27.09;96579.91;4972220;28;20068;-74
2022/08/03 11:28:47;;;;;;;2.83;1.40;;;;;;;39.61;25.28;96584.75;4971589;28;20045;-74
2022/08/03 11:31:21;;;;;;;3.80;1.50;;;;;;;40.35;23.59;96579.28;4968299;28;20038;-74
2022/08/03 11:34:06;;;;;;;9.25;1.73;;;;;;;40.96;24.26;96576.81;4968911;28;20038;-74
2022/08/03 11:37:10;;;;;;;4.30;1.40;;;;;;;41.22;22.44;96580.44;4970005;28;20588;-74
2022/08/03 11:39:45;;;;;;;7.05;1.70;;;;;;;41.86;21.58;96589.66;4957688;28;20172;-74
2022/08/03 11:42:26;;;;;;;6.60;1.48;;;;;;;41.31;21.34;96580.59;4969500;28;20046;-74
2022/08/03 11:44:59;;;;;;;3.47;1.65;;;;;;;42.81;20.48;96579.94;4967870;28;20325;-74
2022/08/03 11:48:09;;;;;;;6.85;1.52;;;;;;;42.39;20.21;96582.22;4977477;28;20057;-74